createdAt,value
2023-03-28T00:01:44.872Z,77.63
2023-03-28T00:05:32.518Z,76.81
2023-03-28T00:09:20.387Z,76.85
2023-03-28T00:13:08.990Z,76.80
2023-03-28T00:16:56.547Z,77.02
2023-03-28T00:20:44.387Z,77.19
2023-03-28T00:32:36.916Z,76.30
2023-03-28T00:36:26.048Z,76.13
2023-03-28T00:40:15.118Z,75.98
2023-03-28T00:44:16.171Z,75.86
2023-03-28T00:48:05.376Z,76.05
2023-03-28T00:51:54.479Z,76.02
2023-03-28T00:59:44.684Z,76.46
2023-03-28T01:03:24.207Z,76.58
2023-03-28T01:07:15.930Z,76.72
2023-03-28T01:11:05.028Z,77.24
2023-03-28T01:14:54.193Z,76.90
2023-03-28T01:18:43.807Z,76.78
2023-03-28T01:22:34.068Z,76.92
2023-03-28T01:26:35.328Z,77.49
2023-03-28T01:42:40.137Z,78.07
2023-03-28T01:46:56.668Z,78.20
2023-03-28T02:03:07.603Z,78.67
2023-03-28T02:06:57.586Z,78.66
2023-03-28T02:10:39.461Z,78.34
2023-03-28T02:14:29.041Z,78.78
2023-03-28T02:30:39.585Z,79.17
2023-03-28T02:34:37.539Z,79.44
2023-03-28T02:38:35.541Z,79.44
2023-03-28T02:42:27.824Z,79.44
2023-03-28T02:55:06.323Z,79.44
2023-03-28T03:10:43.482Z,79.38
2023-03-28T03:14:32.213Z,79.40
2023-03-28T03:18:21.291Z,79.00
2023-03-28T03:22:10.491Z,78.73
2023-03-28T03:26:10.898Z,78.65
2023-03-28T03:29:42.547Z,78.50
2023-03-28T03:33:34.068Z,78.25
2023-03-28T03:37:24.074Z,77.81
2023-03-28T03:40:53.922Z,77.62
2023-03-28T03:45:12.280Z,77.52
2023-03-28T03:48:53.980Z,77.45
2023-03-28T03:52:43.820Z,77.32
2023-03-28T03:56:34.169Z,77.13
2023-03-28T04:00:12.066Z,76.82
2023-03-28T04:03:59.159Z,76.67
2023-03-28T04:07:52.059Z,76.42
2023-03-28T05:12:53.198Z,75.79
2023-03-28T05:16:42.613Z,76.65
2023-03-28T05:20:08.066Z,77.44
2023-03-28T05:22:54.001Z,78.29
2023-03-28T05:26:29.326Z,79.03
2023-03-28T05:29:58.268Z,79.07
2023-03-28T05:33:27.455Z,79.89
2023-03-28T05:37:04.981Z,79.99
2023-03-28T05:40:29.587Z,80.41
2023-03-28T05:43:50.848Z,80.25
2023-03-28T05:46:45.456Z,80.31
2023-03-28T05:49:46.263Z,80.57
2023-03-28T05:52:57.433Z,80.36
2023-03-28T05:56:35.781Z,79.81
2023-03-28T06:00:23.403Z,79.52
2023-03-28T06:04:11.278Z,79.51
2023-03-28T06:06:45.689Z,79.08
2023-03-28T06:09:37.823Z,78.68
2023-03-28T06:12:29.075Z,78.62
2023-03-28T06:15:58.006Z,78.44
2023-03-28T06:19:19.095Z,77.96
2023-03-28T06:22:45.486Z,79.19
2023-03-28T06:26:16.205Z,81.08
2023-03-28T06:29:30.863Z,82.00
2023-03-28T06:32:58.007Z,82.57
2023-03-28T06:36:40.975Z,82.51
2023-03-28T06:40:31.298Z,82.08
2023-03-28T06:47:50.776Z,82.61
2023-03-28T06:50:52.870Z,82.60
2023-03-28T06:53:48.090Z,83.02
2023-03-28T06:56:42.797Z,83.04
2023-03-28T06:59:48.036Z,83.18
2023-03-28T07:02:48.133Z,82.62
2023-03-28T07:06:13.883Z,82.70
2023-03-28T07:09:54.226Z,82.44
2023-03-28T07:12:53.762Z,82.47
2023-03-28T07:16:24.647Z,82.43
2023-03-28T07:19:42.654Z,81.96
2023-03-28T07:22:34.926Z,81.64
2023-03-28T07:25:45.310Z,81.37
2023-03-28T07:28:56.750Z,81.17
2023-03-28T07:32:07.535Z,81.21
2023-03-28T07:34:56.853Z,81.48
2023-03-28T07:38:01.459Z,81.71
2023-03-28T07:41:56.726Z,82.00
2023-03-28T07:45:44.802Z,82.33
2023-03-28T07:49:09.025Z,82.45
2023-03-28T07:52:49.153Z,83.07
2023-03-28T07:56:00.132Z,83.55
2023-03-28T07:59:45.655Z,84.28
2023-03-28T08:03:17.425Z,84.05
2023-03-28T08:06:48.707Z,83.72
2023-03-28T08:10:00.095Z,83.58
2023-03-28T08:13:07.195Z,83.47
2023-03-28T08:16:39.222Z,82.38
2023-03-28T08:20:31.482Z,80.92
2023-03-28T08:24:19.531Z,80.77
2023-03-28T08:28:19.423Z,80.23
2023-03-28T08:31:50.990Z,77.47
2023-03-28T08:35:14.431Z,77.63
2023-03-28T08:38:45.422Z,77.48
2023-03-28T08:50:49.621Z,73.74
2023-03-28T08:54:47.301Z,74.04
2023-03-28T08:58:19.218Z,74.15
2023-03-28T09:09:49.686Z,72.95
2023-03-28T09:14:05.646Z,73.13
2023-03-28T09:17:18.331Z,72.84
2023-03-28T09:20:11.577Z,73.36
2023-03-28T09:23:39.631Z,73.45
2023-03-28T09:27:02.403Z,73.06
2023-03-28T09:30:09.049Z,71.02
2023-03-28T09:33:42.892Z,69.64
2023-03-28T09:37:33.503Z,70.23
2023-03-28T09:41:02.670Z,69.96
2023-03-28T09:52:22.824Z,71.06
2023-03-28T10:10:31.972Z,74.60
2023-03-28T10:13:16.428Z,75.47
2023-03-28T10:16:51.523Z,75.36
2023-03-28T10:20:55.533Z,75.61
2023-03-28T10:24:26.338Z,77.28
2023-03-28T10:27:50.994Z,77.74
2023-03-28T10:47:11.273Z,77.95
2023-03-28T10:50:54.847Z,74.97
2023-03-28T10:54:41.232Z,71.74
2023-03-28T10:58:27.431Z,67.79
2023-03-28T11:01:32.658Z,65.90
2023-03-28T11:05:10.833Z,67.37
2023-03-28T11:26:31.868Z,63.05
2023-03-28T11:30:50.812Z,59.17
2023-03-28T11:34:36.398Z,60.95
2023-03-28T11:52:06.384Z,64.94
2023-03-28T11:55:31.516Z,61.40
2023-03-28T11:59:16.708Z,60.10
2023-03-28T12:03:10.342Z,60.34
2023-03-28T12:07:04.529Z,61.33
2023-03-28T12:10:48.720Z,61.22
2023-03-28T12:14:12.444Z,58.47
2023-03-28T12:18:09.299Z,57.71
2023-03-28T12:38:13.820Z,63.33
2023-03-28T12:41:09.337Z,65.92
2023-03-28T12:43:59.566Z,66.67
2023-03-28T12:47:03.253Z,67.83
2023-03-28T12:50:10.318Z,70.54
2023-03-28T12:52:51.783Z,72.87
2023-03-28T12:56:27.772Z,74.50
2023-03-28T13:00:02.480Z,75.97
2023-03-28T13:04:05.602Z,72.21
2023-03-28T13:07:13.971Z,69.06
2023-03-28T13:11:03.295Z,65.39
2023-03-28T13:14:48.275Z,62.55
2023-03-28T13:18:28.652Z,64.05
2023-03-28T13:22:26.782Z,66.07
2023-03-28T13:43:42.684Z,74.97
2023-03-28T13:47:10.425Z,70.66
2023-03-28T13:50:44.746Z,68.46
2023-03-28T13:54:21.304Z,67.53
2023-03-28T13:57:13.621Z,69.36
2023-03-28T14:00:02.462Z,70.72
2023-03-28T14:03:26.615Z,68.28
2023-03-28T14:11:23.783Z,58.63
2023-03-28T14:15:18.447Z,58.03
2023-03-28T14:18:16.509Z,60.93
2023-03-28T14:46:55.921Z,70.56
2023-03-28T14:50:45.292Z,72.75
2023-03-28T14:54:05.992Z,71.23
2023-03-28T14:57:53.831Z,71.41
2023-03-28T15:01:43.022Z,70.48
2023-03-28T15:04:58.637Z,69.59
2023-03-28T15:08:19.951Z,71.08
2023-03-28T15:12:14.251Z,72.98
2023-03-28T15:15:38.969Z,73.98
2023-03-28T15:19:21.624Z,74.97
2023-03-28T15:23:03.226Z,77.30
2023-03-28T15:26:28.158Z,77.48
2023-03-28T15:29:25.413Z,75.90
2023-03-28T15:32:20.748Z,75.49
2023-03-28T15:35:48.554Z,74.81
2023-03-28T15:39:41.992Z,72.93
2023-03-28T15:43:04.280Z,71.93
2023-03-28T15:53:51.199Z,72.55
2023-03-28T16:52:04.932Z,78.78
2023-03-28T16:58:39.436Z,79.97
2023-03-28T17:02:08.621Z,80.20
2023-03-28T17:05:30.704Z,81.23
2023-03-28T17:08:59.702Z,80.94
2023-03-28T17:12:50.013Z,79.14
2023-03-28T17:16:38.239Z,80.15
2023-03-28T17:31:49.150Z,78.94
2023-03-28T17:51:14.360Z,80.86
2023-03-28T17:55:04.216Z,81.12
2023-03-28T17:58:53.565Z,81.11
2023-03-28T18:02:43.008Z,80.73
2023-03-28T18:06:32.036Z,80.83
2023-03-28T18:10:21.060Z,79.96
2023-03-28T18:14:10.320Z,80.85
2023-03-28T18:17:52.877Z,80.63
2023-03-28T18:21:43.227Z,81.63
2023-03-28T18:25:15.863Z,82.32
2023-03-28T18:29:04.900Z,82.83
2023-03-28T18:32:55.375Z,83.64
2023-03-28T18:36:28.122Z,84.43
2023-03-28T18:39:59.971Z,84.40
2023-03-28T18:43:49.024Z,84.69
2023-03-28T18:47:13.406Z,85.01
2023-03-28T18:50:02.196Z,85.29
2023-03-28T18:52:41.865Z,84.97
2023-03-28T19:18:00.337Z,85.92
2023-03-28T19:21:51.678Z,85.74
2023-03-28T19:25:23.535Z,85.60
2023-03-28T19:28:40.953Z,85.47
2023-03-28T19:32:21.096Z,85.26
2023-03-28T19:35:53.441Z,85.26
2023-03-28T19:39:42.876Z,85.09
2023-03-28T19:43:12.311Z,85.04
2023-03-28T19:47:01.285Z,84.93
2023-03-28T19:50:51.369Z,84.85
2023-03-28T20:13:49.475Z,84.03
2023-03-28T20:17:38.800Z,84.08
2023-03-28T20:21:09.830Z,84.18
2023-03-28T20:24:34.741Z,84.57
2023-03-28T20:28:25.590Z,84.92
2023-03-28T20:31:59.937Z,85.24
2023-03-28T20:35:41.848Z,85.46
2023-03-28T20:39:31.032Z,85.60
2023-03-28T20:43:20.150Z,85.53
2023-03-28T20:47:08.590Z,85.44
2023-03-28T20:50:43.514Z,85.28
2023-03-28T20:54:12.863Z,85.18
2023-03-28T20:57:09.059Z,85.07
2023-03-28T20:59:58.653Z,85.01
2023-03-28T21:02:33.641Z,84.92
2023-03-28T21:05:03.669Z,84.84
2023-03-28T21:07:31.955Z,84.74
2023-03-28T21:11:02.040Z,84.63
2023-03-28T21:18:08.936Z,84.21
2023-03-28T21:33:36.710Z,82.65
2023-03-28T21:37:26.783Z,82.42
2023-03-28T21:41:16.006Z,82.01
2023-03-28T21:45:15.881Z,81.54
2023-03-28T21:49:05.217Z,81.18
2023-03-28T21:52:53.055Z,81.00
2023-03-28T21:56:16.984Z,80.53
2023-03-28T22:00:06.285Z,80.27
2023-03-28T22:07:50.113Z,80.18
2023-03-28T22:11:39.449Z,80.26
2023-03-28T22:19:17.630Z,80.34
2023-03-28T22:23:06.796Z,80.46
2023-03-28T22:26:48.835Z,80.37
2023-03-28T22:30:29.651Z,80.24
2023-03-28T22:34:20.118Z,79.94
2023-03-28T22:50:10.140Z,78.77
2023-03-28T22:53:57.824Z,78.82
2023-03-28T22:57:38.607Z,78.61
2023-03-28T23:01:28.443Z,78.28
2023-03-28T23:05:46.948Z,78.11
2023-03-28T23:09:36.431Z,78.03
2023-03-28T23:13:25.668Z,78.06
2023-03-28T23:17:14.691Z,78.06
2023-03-28T23:21:03.910Z,78.04
2023-03-28T23:24:53.412Z,78.01
2023-03-28T23:44:19.496Z,77.59
2023-03-28T23:48:08.469Z,77.62
2023-03-28T23:51:57.442Z,77.62
2023-03-28T23:55:46.545Z,77.76
2023-03-28T23:59:35.849Z,77.79
